createdAt,value
2018-07-25T00:01:31.562Z,99271.59
2018-07-25T00:07:37.087Z,99273.16
2018-07-25T00:13:42.532Z,99270.28
2018-07-25T00:19:47.993Z,99269.30
2018-07-25T00:25:53.452Z,99275.58
2018-07-25T00:31:58.961Z,99271.90
2018-07-25T00:38:04.376Z,99276.34
2018-07-25T00:44:09.596Z,99275.55
2018-07-25T00:50:14.930Z,99277.78
2018-07-25T00:56:20.375Z,99267.97
2018-07-25T01:02:26.107Z,99268.21
2018-07-25T01:08:31.562Z,99265.75
2018-07-25T01:14:37.017Z,99262.67
2018-07-25T01:20:42.513Z,99267.56
2018-07-25T01:26:47.962Z,99274.69
2018-07-25T01:32:53.453Z,99275.02
2018-07-25T01:38:58.886Z,99277.00
2018-07-25T01:45:04.452Z,99276.20
2018-07-25T01:51:09.886Z,99289.35
2018-07-25T01:57:15.340Z,99291.00
2018-07-25T02:03:20.526Z,99290.98
2018-07-25T02:09:25.978Z,99297.27
2018-07-25T02:15:31.410Z,99299.47
2018-07-25T02:21:36.855Z,99292.66
2018-07-25T02:27:42.328Z,99297.28
2018-07-25T02:33:53.060Z,99295.92
2018-07-25T02:39:58.494Z,99298.66
2018-07-25T02:46:03.934Z,99302.74
2018-07-25T02:52:09.390Z,99311.73
2018-07-25T02:58:14.875Z,99322.33
2018-07-25T03:04:20.297Z,99319.38
2018-07-25T03:10:25.785Z,99330.87
2018-07-25T03:16:31.283Z,99324.87
2018-07-25T03:22:36.734Z,99332.77
2018-07-25T03:28:42.174Z,99333.56
2018-07-25T03:34:47.623Z,99337.30
2018-07-25T03:40:53.085Z,99341.09
2018-07-25T03:46:58.543Z,99332.83
2018-07-25T03:53:04.177Z,99343.54
2018-07-25T03:59:09.632Z,99345.48
2018-07-25T04:05:15.095Z,99348.75
2018-07-25T04:11:20.558Z,99358.53
2018-07-25T04:17:30.054Z,99356.64
2018-07-25T04:23:35.484Z,99358.33
2018-07-25T04:29:40.941Z,99370.72
2018-07-25T04:35:46.410Z,99365.53
2018-07-25T04:41:51.882Z,99377.27
2018-07-25T04:47:57.335Z,99378.92
2018-07-25T04:54:02.773Z,99381.63
2018-07-25T05:00:08.351Z,99383.55
2018-07-25T05:06:13.813Z,99380.32
2018-07-25T05:12:19.277Z,99385.22
2018-07-25T05:18:24.703Z,99394.24
2018-07-25T05:24:30.171Z,99395.06
2018-07-25T05:30:35.612Z,99399.12
2018-07-25T05:36:41.066Z,99402.12
2018-07-25T05:42:46.506Z,99409.22
2018-07-25T05:48:51.997Z,99403.62
2018-07-25T05:54:57.450Z,99406.30
2018-07-25T06:01:02.966Z,99418.48
2018-07-25T06:07:08.429Z,99420.42
2018-07-25T06:13:13.896Z,99422.53
2018-07-25T06:19:19.418Z,99429.03
2018-07-25T06:25:24.874Z,99425.03
2018-07-25T06:31:30.346Z,99430.81
2018-07-25T06:37:35.807Z,99428.72
2018-07-25T06:43:41.329Z,99428.61
2018-07-25T06:49:46.761Z,99428.09
2018-07-25T06:55:52.858Z,99428.39
2018-07-25T07:01:58.759Z,99425.27
2018-07-25T07:08:04.599Z,99420.11
2018-07-25T07:14:10.473Z,99420.34
2018-07-25T07:20:16.318Z,99428.20
2018-07-25T07:26:22.186Z,99421.83
2018-07-25T07:32:27.995Z,99420.75
2018-07-25T07:38:33.474Z,99424.66
2018-07-25T07:44:38.931Z,99428.30
2018-07-25T07:50:44.446Z,99427.56
2018-07-25T07:56:49.941Z,99422.44
2018-07-25T08:02:55.460Z,99425.98
2018-07-25T08:09:00.951Z,99425.62
2018-07-25T08:15:07.121Z,99424.16
2018-07-25T08:21:13.608Z,99426.02
2018-07-25T08:27:21.729Z,99426.22
2018-07-25T08:33:27.271Z,99420.88
2018-07-25T08:39:32.758Z,99419.16
2018-07-25T08:45:38.236Z,99417.49
2018-07-25T08:51:43.920Z,99413.13
2018-07-25T08:57:49.799Z,99410.11
2018-07-25T09:03:55.691Z,99406.26
2018-07-25T09:10:01.564Z,99414.62
2018-07-25T09:16:07.484Z,99410.61
2018-07-25T09:22:13.358Z,99417.46
2018-07-25T09:28:18.861Z,99402.48
2018-07-25T09:34:24.711Z,99406.70
2018-07-25T09:40:30.460Z,99397.28
2018-07-25T09:46:36.477Z,99392.36
2018-07-25T09:52:42.732Z,99393.15
2018-07-25T09:58:47.993Z,99389.53
2018-07-25T10:04:53.420Z,99380.65
2018-07-25T10:10:59.412Z,99375.59
2018-07-25T10:17:05.408Z,99360.59
2018-07-25T10:23:11.233Z,99367.83
2018-07-25T10:29:17.097Z,99363.48
2018-07-25T10:35:23.013Z,99367.58
2018-07-25T10:41:28.896Z,99358.13
2018-07-25T10:47:34.805Z,99360.61
2018-07-25T10:53:40.827Z,99357.05
2018-07-25T10:59:46.770Z,99361.20
2018-07-25T11:05:52.655Z,99353.81
2018-07-25T11:11:58.568Z,99349.44
2018-07-25T11:18:04.432Z,99333.53
2018-07-25T11:24:10.318Z,99330.43
2018-07-25T11:30:16.228Z,99321.38
2018-07-25T11:36:22.162Z,99318.94
2018-07-25T11:42:28.029Z,99323.70
2018-07-25T11:48:33.871Z,99313.58
2018-07-25T11:54:39.782Z,99308.47
2018-07-25T12:00:45.659Z,99299.85
2018-07-25T12:06:51.609Z,99309.23
2018-07-25T12:12:57.717Z,99301.55
2018-07-25T12:19:03.705Z,99305.82
2018-07-25T12:25:09.540Z,99296.81
2018-07-25T12:31:15.500Z,99287.97
2018-07-25T12:37:21.446Z,99294.13
2018-07-25T12:43:27.380Z,99283.81
2018-07-25T12:49:33.328Z,99291.89
2018-07-25T12:55:39.173Z,99281.98
2018-07-25T13:01:45.099Z,99280.44
2018-07-25T13:07:51.087Z,99276.37
2018-07-25T13:13:57.306Z,99276.02
2018-07-25T13:20:03.233Z,99265.05
2018-07-25T13:26:09.185Z,99255.87
2018-07-25T13:32:15.098Z,99263.48
2018-07-25T13:38:21.014Z,99262.85
2018-07-25T13:44:27.022Z,99254.16
2018-07-25T13:50:32.928Z,99263.13
2018-07-25T13:56:38.847Z,99255.64
2018-07-25T14:02:44.681Z,99241.96
2018-07-25T14:08:50.601Z,99246.17
2018-07-25T14:14:56.549Z,99234.85
2018-07-25T14:21:02.461Z,99228.25
2018-07-25T14:27:08.402Z,99223.14
2018-07-25T14:33:14.321Z,99221.12
2018-07-25T14:39:20.353Z,99229.89
2018-07-25T14:45:26.236Z,99221.12
2018-07-25T14:51:31.747Z,99218.84
2018-07-25T14:57:37.184Z,99213.17
2018-07-25T15:03:43.659Z,99218.84
2018-07-25T15:09:49.406Z,99210.79
2018-07-25T15:15:55.020Z,99200.48
2018-07-25T15:22:00.844Z,99202.22
2018-07-25T15:28:07.287Z,99211.45
2018-07-25T15:34:13.270Z,99205.51
2018-07-25T15:40:19.123Z,99206.82
2018-07-25T15:46:25.067Z,99208.72
2018-07-25T15:52:31.011Z,99199.48
2018-07-25T15:58:36.950Z,99205.33
2018-07-25T16:04:42.840Z,99208.23
2018-07-25T16:10:48.819Z,99208.84
2018-07-25T16:16:54.707Z,99200.14
2018-07-25T16:23:00.421Z,99197.69
2018-07-25T16:29:06.025Z,99196.71
2018-07-25T16:35:11.602Z,99201.36
2018-07-25T16:41:17.245Z,99195.33
2018-07-25T16:47:22.794Z,99197.88
2018-07-25T16:53:28.405Z,99197.06
2018-07-25T16:59:34.453Z,99194.84
2018-07-25T17:05:40.290Z,99199.11
2018-07-25T17:11:46.162Z,99201.35
2018-07-25T17:17:52.100Z,99200.42
2018-07-25T17:23:58.020Z,99211.44
2018-07-25T17:30:03.910Z,99212.94
2018-07-25T17:36:09.931Z,99222.79
2018-07-25T17:42:15.859Z,99219.97
2018-07-25T17:48:21.808Z,99223.40
2018-07-25T17:54:27.526Z,99224.55
2018-07-25T18:00:33.696Z,99236.37
2018-07-25T18:06:39.271Z,99240.97
2018-07-25T18:12:44.929Z,99244.80
2018-07-25T18:18:50.408Z,99260.34
2018-07-25T18:24:56.104Z,99256.01
2018-07-25T18:31:01.680Z,99261.72
2018-07-25T18:37:07.339Z,99267.82
2018-07-25T18:43:12.860Z,99271.75
2018-07-25T18:49:18.796Z,99280.19
2018-07-25T18:55:24.336Z,99281.58
2018-07-25T19:01:29.896Z,99283.31
2018-07-25T19:07:35.608Z,99280.86
2018-07-25T19:13:45.147Z,99294.19
2018-07-25T19:19:50.638Z,99304.54
2018-07-25T19:25:56.183Z,99312.33
2018-07-25T19:32:01.663Z,99317.40
2018-07-25T19:38:07.698Z,99324.28
2018-07-25T19:44:13.521Z,99338.34
2018-07-25T19:50:19.691Z,99341.69
2018-07-25T19:56:25.227Z,99351.42
2018-07-25T20:02:30.708Z,99351.27
2018-07-25T20:08:37.251Z,99354.38
2018-07-25T20:14:48.139Z,99359.08
2018-07-25T20:20:53.810Z,99364.75
2018-07-25T20:27:00.258Z,99362.19
2018-07-25T20:33:06.123Z,99361.19
2018-07-25T20:39:12.915Z,99361.31
2018-07-25T20:45:18.428Z,99368.34
2018-07-25T20:51:23.908Z,99365.31
2018-07-25T20:57:29.407Z,99369.03
2018-07-25T21:03:34.969Z,99366.91
2018-07-25T21:09:41.018Z,99379.44
2018-07-25T21:15:47.769Z,99379.19
2018-07-25T21:21:53.619Z,99383.11
2018-07-25T21:27:59.436Z,99382.28
2018-07-25T21:34:05.309Z,99388.31
2018-07-25T21:40:10.795Z,99396.81
2018-07-25T21:46:16.274Z,99397.41
2018-07-25T21:52:21.736Z,99398.84
2018-07-25T21:58:27.263Z,99401.14
2018-07-25T22:04:32.717Z,99398.41
2018-07-25T22:10:38.186Z,99406.55
2018-07-25T22:16:43.632Z,99408.34
2018-07-25T22:22:49.115Z,99404.22
2018-07-25T22:28:54.620Z,99406.24
2018-07-25T22:35:00.145Z,99408.82
2018-07-25T22:41:05.772Z,99417.21
2018-07-25T22:47:11.265Z,99419.52
2018-07-25T22:53:16.785Z,99427.88
2018-07-25T22:59:22.260Z,99423.37
2018-07-25T23:05:27.780Z,99427.67
2018-07-25T23:11:33.244Z,99443.70
2018-07-25T23:17:38.698Z,99443.86
2018-07-25T23:23:44.178Z,99446.59
2018-07-25T23:29:49.648Z,99446.27
2018-07-25T23:35:55.112Z,99443.87
2018-07-25T23:42:00.620Z,99443.09
2018-07-25T23:48:06.130Z,99440.78
2018-07-25T23:54:11.632Z,99439.27
